createdAt,value
2023-02-18T00:01:32.934Z,101663.66
2023-02-18T00:04:00.956Z,101669.78
2023-02-18T00:06:30.450Z,101682.41
2023-02-18T00:09:00.419Z,101680.53
2023-02-18T00:11:27.922Z,101677.13
2023-02-18T00:13:59.097Z,101668.38
2023-02-18T00:16:27.069Z,101673.16
2023-02-18T00:19:02.360Z,101658.66
2023-02-18T00:21:30.292Z,101661.38
2023-02-18T00:23:57.825Z,101662.75
2023-02-18T00:26:24.834Z,101652.47
2023-02-18T00:28:54.635Z,101650.72
2023-02-18T00:31:25.788Z,101657.06
2023-02-18T00:33:52.949Z,101643.59
2023-02-18T00:36:21.677Z,101639.84
2023-02-18T00:38:50.884Z,101645.59
2023-02-18T00:41:18.112Z,101649.34
2023-02-18T00:43:45.070Z,101648.50
2023-02-18T00:46:12.134Z,101644.94
2023-02-18T00:48:40.242Z,101631.59
2023-02-18T00:51:08.259Z,101640.97
2023-02-18T00:53:36.078Z,101634.63
2023-02-18T00:56:02.781Z,101634.63
2023-02-18T00:58:29.648Z,101636.34
2023-02-18T01:00:56.606Z,101633.78
2023-02-18T01:03:23.970Z,101636.34
2023-02-18T01:05:51.962Z,101634.31
2023-02-18T01:08:20.946Z,101623.75
2023-02-18T01:10:49.708Z,101625.63
2023-02-18T01:13:17.215Z,101625.78
2023-02-18T01:15:44.243Z,101620.66
2023-02-18T01:18:11.492Z,101619.63
2023-02-18T01:20:40.824Z,101626.25
2023-02-18T01:23:07.753Z,101610.03
2023-02-18T01:25:37.131Z,101609.69
2023-02-18T01:28:04.705Z,101621.44
2023-02-18T01:30:31.804Z,101625.88
2023-02-18T01:32:58.780Z,101631.50
2023-02-18T01:35:25.861Z,101621.28
2023-02-18T01:37:52.664Z,101617.69
2023-02-18T01:40:23.189Z,101608.50
2023-02-18T01:42:50.481Z,101598.78
2023-02-18T01:45:35.564Z,101604.00
2023-02-18T01:48:23.281Z,101605.19
2023-02-18T01:51:05.669Z,101602.63
2023-02-18T01:53:44.969Z,101603.47
2023-02-18T01:56:19.393Z,101597.16
2023-02-18T01:58:46.230Z,101598.00
2023-02-18T02:01:13.210Z,101599.72
2023-02-18T02:03:39.874Z,101597.00
2023-02-18T02:06:16.192Z,101597.84
2023-02-18T02:08:44.902Z,101605.72
2023-02-18T02:11:28.234Z,101611.88
2023-02-18T02:14:08.385Z,101608.50
2023-02-18T02:16:50.597Z,101613.31
2023-02-18T02:19:55.460Z,101598.84
2023-02-18T02:22:46.362Z,101618.22
2023-02-18T02:25:34.320Z,101607.31
2023-02-18T02:28:07.053Z,101619.38
2023-02-18T02:30:52.560Z,101605.09
2023-02-18T02:33:53.141Z,101618.88
2023-02-18T02:36:25.640Z,101631.50
2023-02-18T02:39:21.874Z,101628.28
2023-02-18T02:42:20.858Z,101625.78
2023-02-18T02:45:03.172Z,101635.19
2023-02-18T02:47:45.624Z,101622.25
2023-02-18T02:50:55.020Z,101624.13
2023-02-18T02:53:30.019Z,101621.41
2023-02-18T02:55:57.336Z,101636.19
2023-02-18T02:58:23.978Z,101622.72
2023-02-18T03:01:15.670Z,101614.72
2023-02-18T03:03:48.162Z,101611.16
2023-02-18T03:06:53.509Z,101609.09
2023-02-18T03:09:34.121Z,101636.03
2023-02-18T03:12:08.925Z,101638.75
2023-02-18T03:14:49.510Z,101656.84
2023-02-18T03:17:25.231Z,101654.66
2023-02-18T03:20:10.679Z,101651.78
2023-02-18T03:22:41.940Z,101653.94
2023-02-18T03:25:10.428Z,101658.84
2023-02-18T03:27:44.311Z,101669.75
2023-02-18T03:30:24.735Z,101658.31
2023-02-18T03:33:00.822Z,101647.25
2023-02-18T03:35:27.988Z,101654.75
2023-02-18T03:38:06.380Z,101651.47
2023-02-18T03:40:33.443Z,101660.81
2023-02-18T03:43:00.128Z,101643.22
2023-02-18T03:45:28.193Z,101643.31
2023-02-18T03:47:54.898Z,101655.53
2023-02-18T03:50:21.620Z,101657.59
2023-02-18T03:52:48.500Z,101663.88
2023-02-18T03:55:15.118Z,101650.81
2023-02-18T03:57:41.846Z,101663.41
2023-02-18T04:00:09.685Z,101661.72
2023-02-18T04:02:36.376Z,101648.09
2023-02-18T04:05:03.178Z,101653.22
2023-02-18T04:07:29.990Z,101649.31
2023-02-18T04:09:56.648Z,101645.56
2023-02-18T04:12:24.334Z,101651.03
2023-02-18T04:14:51.328Z,101651.19
2023-02-18T04:17:18.082Z,101661.47
2023-02-18T04:19:44.909Z,101662.16
2023-02-18T04:22:12.005Z,101655.69
2023-02-18T04:24:38.641Z,101665.50
2023-02-18T04:27:05.409Z,101657.78
2023-02-18T04:29:32.314Z,101646.50
2023-02-18T04:31:58.999Z,101655.81
2023-02-18T04:34:25.774Z,101653.25
2023-02-18T04:36:52.802Z,101651.00
2023-02-18T04:39:19.503Z,101651.16
2023-02-18T04:41:46.200Z,101662.47
2023-02-18T04:44:13.103Z,101649.03
2023-02-18T04:46:39.755Z,101653.63
2023-02-18T04:49:06.518Z,101650.75
2023-02-18T04:51:33.561Z,101654.47
2023-02-18T04:54:00.202Z,101662.63
2023-02-18T04:56:26.916Z,101669.03
2023-02-18T04:58:53.859Z,101652.59
2023-02-18T05:01:20.573Z,101652.72
2023-02-18T05:03:47.423Z,101658.63
2023-02-18T05:06:14.313Z,101671.38
2023-02-18T05:08:41.202Z,101655.06
2023-02-18T05:11:09.054Z,101671.91
2023-02-18T05:13:36.047Z,101652.72
2023-02-18T05:16:02.939Z,101658.03
2023-02-18T05:18:29.705Z,101663.34
2023-02-18T05:20:56.511Z,101657.19
2023-02-18T05:23:23.364Z,101655.19
2023-02-18T05:25:50.123Z,101650.59
2023-02-18T05:28:16.996Z,101662.47
2023-02-18T05:30:43.709Z,101660.19
2023-02-18T05:33:10.382Z,101661.19
2023-02-18T05:35:37.180Z,101664.06
2023-02-18T05:38:04.204Z,101660.34
2023-02-18T05:40:31.081Z,101660.50
2023-02-18T05:42:57.906Z,101661.50
2023-02-18T05:45:24.753Z,101647.16
2023-02-18T05:47:51.618Z,101657.06
2023-02-18T05:50:18.460Z,101656.22
2023-02-18T05:52:45.177Z,101656.38
2023-02-18T05:55:11.861Z,101651.91
2023-02-18T05:57:38.592Z,101652.91
2023-02-18T06:00:06.531Z,101652.91
2023-02-18T06:02:33.304Z,101659.25
2023-02-18T06:04:59.999Z,101663.81
2023-02-18T06:07:26.859Z,101653.94
2023-02-18T06:09:53.963Z,101661.38
2023-02-18T06:12:20.690Z,101659.38
2023-02-18T06:14:47.644Z,101673.84
2023-02-18T06:17:15.104Z,101672.84
2023-02-18T06:19:41.982Z,101669.66
2023-02-18T06:22:08.771Z,101683.09
2023-02-18T06:24:35.514Z,101684.09
2023-02-18T06:27:02.779Z,101693.66
2023-02-18T06:29:32.329Z,101670.31
2023-02-18T06:32:00.053Z,101680.97
2023-02-18T06:34:27.842Z,101683.09
2023-02-18T06:36:54.771Z,101686.69
2023-02-18T06:39:21.507Z,101674.63
2023-02-18T06:41:48.295Z,101688.84
2023-02-18T06:44:17.064Z,101686.13
2023-02-18T06:46:44.459Z,101701.44
2023-02-18T06:49:11.419Z,101699.44
2023-02-18T06:51:38.452Z,101703.16
2023-02-18T06:54:06.080Z,101705.72
2023-02-18T06:56:33.239Z,101705.72
2023-02-18T06:58:59.981Z,101709.31
2023-02-18T07:01:26.651Z,101709.00
2023-02-18T07:03:53.356Z,101713.13
2023-02-18T07:06:20.318Z,101720.69
2023-02-18T07:08:47.058Z,101709.50
2023-02-18T07:11:13.806Z,101727.25
2023-02-18T07:13:40.583Z,101739.69
2023-02-18T07:16:07.711Z,101742.13
2023-02-18T07:18:34.665Z,101741.97
2023-02-18T07:21:02.697Z,101756.13
2023-02-18T07:23:29.365Z,101765.03
2023-02-18T07:26:08.118Z,101765.72
2023-02-18T07:28:35.232Z,101770.00
2023-02-18T07:31:02.527Z,101773.44
2023-02-18T07:33:29.520Z,101777.16
2023-02-18T07:35:59.026Z,101776.28
2023-02-18T07:38:26.611Z,101780.91
2023-02-18T07:40:54.317Z,101787.34
2023-02-18T07:43:21.448Z,101786.81
2023-02-18T07:45:48.262Z,101782.22
2023-02-18T07:48:15.092Z,101790.38
2023-02-18T07:50:43.866Z,101801.28
2023-02-18T07:53:11.800Z,101786.81
2023-02-18T07:55:51.084Z,101802.28
2023-02-18T07:58:26.609Z,101791.53
2023-02-18T08:00:54.934Z,101789.84
2023-02-18T08:03:27.711Z,101800.16
2023-02-18T08:05:54.845Z,101805.91
2023-02-18T08:08:24.265Z,101810.63
2023-02-18T08:10:52.995Z,101814.38
2023-02-18T08:13:19.697Z,101806.06
2023-02-18T08:15:46.528Z,101812.22
2023-02-18T08:18:19.107Z,101820.22
2023-02-18T08:20:47.400Z,101821.78
2023-02-18T08:23:15.486Z,101827.97
2023-02-18T08:25:52.361Z,101830.81
2023-02-18T08:28:20.476Z,101833.41
2023-02-18T08:30:48.600Z,101827.97
2023-02-18T08:33:16.388Z,101848.88
2023-02-18T08:35:43.425Z,101848.88
2023-02-18T08:38:10.081Z,101845.44
2023-02-18T08:40:36.853Z,101853.63
2023-02-18T08:43:03.665Z,101857.34
2023-02-18T08:45:30.463Z,101861.22
2023-02-18T08:48:16.115Z,101868.69
2023-02-18T08:50:44.001Z,101867.13
2023-02-18T08:53:10.724Z,101872.13
2023-02-18T08:55:41.218Z,101869.41
2023-02-18T08:58:08.426Z,101871.84
2023-02-18T09:00:36.059Z,101872.56
2023-02-18T09:03:03.273Z,101878.69
2023-02-18T09:05:30.175Z,101883.00
2023-02-18T09:07:57.214Z,101897.50
2023-02-18T09:10:23.960Z,101902.22
2023-02-18T09:12:50.700Z,101910.38
2023-02-18T09:15:17.989Z,101919.16
2023-02-18T09:17:44.700Z,101912.28
2023-02-18T09:20:11.790Z,101904.13
2023-02-18T09:22:38.478Z,101903.09
2023-02-18T09:25:05.572Z,101906.53
2023-02-18T09:27:32.457Z,101908.25
2023-02-18T09:29:59.191Z,101909.38
2023-02-18T09:32:34.424Z,101905.22
2023-02-18T09:35:03.135Z,101906.78
2023-02-18T09:37:30.099Z,101910.63
2023-02-18T09:39:57.040Z,101913.88
2023-02-18T09:42:34.520Z,101909.00
2023-02-18T09:45:04.912Z,101910.28
2023-02-18T09:47:41.347Z,101908.13
2023-02-18T09:50:18.794Z,101912.97
2023-02-18T09:52:46.284Z,101910.34
2023-02-18T09:55:27.832Z,101908.03
2023-02-18T09:57:57.883Z,101914.03
2023-02-18T10:00:33.692Z,101923.78
2023-02-18T10:03:06.012Z,101915.00
2023-02-18T10:05:34.186Z,101918.28
2023-02-18T10:08:07.058Z,101917.97
2023-02-18T10:10:39.450Z,101918.38
2023-02-18T10:13:13.147Z,101925.66
2023-02-18T10:15:43.187Z,101924.78
2023-02-18T10:21:07.597Z,101933.13
2023-02-18T10:23:38.196Z,101929.22
2023-02-18T10:26:10.462Z,101926.19
2023-02-18T10:28:38.332Z,101928.91
2023-02-18T10:31:20.562Z,101925.34
2023-02-18T10:33:58.603Z,101926.19
2023-02-18T10:36:27.236Z,101916.31
2023-02-18T10:39:12.572Z,101922.63
2023-02-18T10:42:14.504Z,101920.41
2023-02-18T10:45:33.830Z,101927.06
2023-02-18T10:48:12.352Z,101917.84
2023-02-18T10:50:41.905Z,101912.97
2023-02-18T10:53:13.978Z,101917.78
2023-02-18T10:55:46.937Z,101912.44
2023-02-18T10:58:34.229Z,101914.56
2023-02-18T11:01:05.640Z,101907.94
2023-02-18T11:03:52.908Z,101909.47
2023-02-18T11:06:32.788Z,101902.25
2023-02-18T11:09:01.065Z,101897.78
2023-02-18T11:11:33.610Z,101901.00
2023-02-18T11:14:03.193Z,101908.47
2023-02-18T11:16:38.070Z,101906.22
2023-02-18T11:19:04.939Z,101906.69
2023-02-18T11:21:37.146Z,101888.59
2023-02-18T11:24:16.406Z,101895.06
2023-02-18T11:26:49.090Z,101889.91
2023-02-18T11:29:26.787Z,101892.97
2023-02-18T11:31:56.929Z,101898.41
2023-02-18T11:34:28.897Z,101898.53
2023-02-18T11:36:56.066Z,101901.75
2023-02-18T11:39:28.548Z,101884.91
2023-02-18T11:41:57.670Z,101886.63
2023-02-18T11:44:38.803Z,101876.69
2023-02-18T11:47:20.199Z,101881.72
2023-02-18T11:50:03.207Z,101903.88
2023-02-18T11:52:35.691Z,101907.50
2023-02-18T11:55:04.859Z,101903.78
2023-02-18T11:57:33.991Z,101911.81
2023-02-18T12:00:01.517Z,101901.44
2023-02-18T12:02:38.176Z,101910.16
2023-02-18T12:05:26.817Z,101908.28
2023-02-18T12:08:11.350Z,101912.91
2023-02-18T12:10:51.633Z,101911.91
2023-02-18T12:13:32.538Z,101923.25
2023-02-18T12:16:17.275Z,101927.22
2023-02-18T12:19:09.410Z,101918.72
2023-02-18T12:21:57.594Z,101918.41
2023-02-18T12:24:54.048Z,101932.94
2023-02-18T12:27:34.764Z,101916.00
2023-02-18T12:30:32.715Z,101904.13
2023-02-18T12:32:59.385Z,101915.09
2023-02-18T12:35:47.905Z,101918.16
2023-02-18T12:38:36.198Z,101903.47
2023-02-18T12:41:32.155Z,101899.78
2023-02-18T12:44:27.191Z,101907.88
2023-02-18T12:47:21.443Z,101912.38
2023-02-18T12:50:06.361Z,101924.81
2023-02-18T12:52:51.374Z,101904.97
2023-02-18T12:55:53.575Z,101896.16
2023-02-18T12:58:29.341Z,101892.66
2023-02-18T13:01:14.595Z,101886.44
2023-02-18T13:04:04.926Z,101869.09
2023-02-18T13:06:52.640Z,101868.91
2023-02-18T13:09:22.425Z,101854.69
2023-02-18T13:12:12.096Z,101872.34
2023-02-18T13:15:03.469Z,101861.16
2023-02-18T13:17:35.613Z,101875.88
2023-02-18T13:20:09.449Z,101871.41
2023-02-18T13:22:36.903Z,101866.88
2023-02-18T13:25:03.643Z,101882.31
2023-02-18T13:27:42.208Z,101859.75
2023-02-18T13:30:47.543Z,101866.34
2023-02-18T13:33:26.425Z,101865.28
2023-02-18T13:35:58.076Z,101867.28
2023-02-18T13:38:54.726Z,101875.16
2023-02-18T13:41:22.283Z,101878.28
2023-02-18T13:43:49.379Z,101858.13
2023-02-18T13:46:25.405Z,101857.47
2023-02-18T13:49:15.687Z,101854.75
2023-02-18T13:51:48.981Z,101846.72
2023-02-18T13:54:45.084Z,101857.13
2023-02-18T13:57:16.543Z,101852.19
2023-02-18T13:59:47.361Z,101830.69
2023-02-18T14:02:19.994Z,101838.06
2023-02-18T14:04:46.940Z,101823.59
2023-02-18T14:07:41.924Z,101808.63
2023-02-18T14:10:18.493Z,101820.97
2023-02-18T14:12:57.914Z,101808.75
2023-02-18T14:15:24.928Z,101811.84
2023-02-18T14:18:13.710Z,101810.75
2023-02-18T14:20:40.381Z,101818.22
2023-02-18T14:23:19.175Z,101798.38
2023-02-18T14:26:06.831Z,101798.38
2023-02-18T14:28:39.264Z,101797.84
2023-02-18T14:31:06.032Z,101793.25
2023-02-18T14:33:35.967Z,101788.63
2023-02-18T14:36:32.335Z,101775.81
2023-02-18T14:39:07.939Z,101771.13
2023-02-18T14:42:08.153Z,101763.03
2023-02-18T14:45:10.016Z,101771.22
2023-02-18T14:48:14.747Z,101783.50
2023-02-18T14:50:46.190Z,101786.81
2023-02-18T14:53:18.803Z,101781.09
2023-02-18T14:55:59.884Z,101784.88
2023-02-18T14:58:43.849Z,101798.06
2023-02-18T15:01:33.283Z,101800.84
2023-02-18T15:04:02.937Z,101797.09
2023-02-18T15:06:33.157Z,101802.88
2023-02-18T15:09:03.674Z,101818.91
2023-02-18T15:11:40.047Z,101812.81
2023-02-18T15:14:16.974Z,101806.66
2023-02-18T15:16:45.548Z,101814.16
2023-02-18T15:19:18.356Z,101824.56
2023-02-18T15:21:46.430Z,101819.25
2023-02-18T15:24:26.061Z,101819.19
2023-02-18T15:26:55.980Z,101815.75
2023-02-18T15:29:34.943Z,101814.88
2023-02-18T15:32:07.079Z,101827.78
2023-02-18T15:34:37.739Z,101830.59
2023-02-18T15:37:12.980Z,101829.16
2023-02-18T15:39:42.466Z,101838.69
2023-02-18T15:42:25.013Z,101832.53
2023-02-18T15:44:57.697Z,101816.13
2023-02-18T15:47:24.738Z,101820.16
2023-02-18T15:50:00.957Z,101828.94
2023-02-18T15:52:31.770Z,101826.63
2023-02-18T15:55:08.404Z,101829.22
2023-02-18T15:57:37.044Z,101822.44
2023-02-18T16:00:19.049Z,101825.72
2023-02-18T16:03:12.227Z,101812.84
2023-02-18T16:05:43.192Z,101810.06
2023-02-18T16:08:24.657Z,101818.34
2023-02-18T16:10:56.497Z,101829.19
2023-02-18T16:13:26.391Z,101828.81
2023-02-18T16:15:53.877Z,101835.97
2023-02-18T16:18:41.676Z,101831.25
2023-02-18T16:21:20.347Z,101835.13
2023-02-18T16:23:58.419Z,101840.34
2023-02-18T16:26:27.896Z,101846.72
2023-02-18T16:29:00.818Z,101858.59
2023-02-18T16:31:27.675Z,101843.88
2023-02-18T16:33:54.356Z,101859.00
2023-02-18T16:36:23.859Z,101844.78
2023-02-18T16:38:50.561Z,101853.28
2023-02-18T16:41:18.778Z,101848.16
2023-02-18T16:43:45.820Z,101868.56
2023-02-18T16:46:18.539Z,101858.56
2023-02-18T16:48:55.225Z,101881.84
2023-02-18T16:51:31.535Z,101880.91
2023-02-18T16:53:58.477Z,101881.03
2023-02-18T16:56:28.655Z,101883.63
2023-02-18T16:58:55.276Z,101887.88
2023-02-18T17:01:29.725Z,101888.34
2023-02-18T17:03:58.344Z,101900.97
2023-02-18T17:06:25.162Z,101900.25
2023-02-18T17:08:52.135Z,101902.97
2023-02-18T17:11:21.500Z,101903.84
2023-02-18T17:13:49.610Z,101915.28
2023-02-18T17:16:17.033Z,101905.13
2023-02-18T17:18:44.791Z,101898.41
2023-02-18T17:21:17.532Z,101908.03
2023-02-18T17:23:44.526Z,101904.34
2023-02-18T17:26:21.477Z,101912.97
2023-02-18T17:28:48.296Z,101911.25
2023-02-18T17:31:21.389Z,101921.28
2023-02-18T17:33:48.317Z,101921.59
2023-02-18T17:36:15.326Z,101928.19
2023-02-18T17:38:42.076Z,101943.81
2023-02-18T17:41:11.120Z,101950.03
2023-02-18T17:43:38.240Z,101955.78
2023-02-18T17:46:05.629Z,101959.50
2023-02-18T17:48:33.128Z,101954.63
2023-02-18T17:51:00.864Z,101972.50
2023-02-18T17:53:27.524Z,101964.34
2023-02-18T17:55:54.415Z,101970.66
2023-02-18T17:58:21.166Z,101989.00
2023-02-18T18:00:51.920Z,101991.03
2023-02-18T18:03:19.200Z,101982.13
2023-02-18T18:05:49.245Z,101986.72
2023-02-18T18:08:16.232Z,101993.31
2023-02-18T18:10:55.338Z,102002.50
2023-02-18T18:13:35.075Z,101996.50
2023-02-18T18:16:02.055Z,101996.50
2023-02-18T18:18:28.789Z,102016.41
2023-02-18T18:21:02.596Z,102011.13
2023-02-18T18:23:29.437Z,102014.84
2023-02-18T18:25:58.162Z,102027.91
2023-02-18T18:28:27.104Z,102032.47
2023-02-18T18:30:55.879Z,102046.09
2023-02-18T18:33:28.348Z,102051.38
2023-02-18T18:35:57.261Z,102044.22
2023-02-18T18:38:25.866Z,102052.41
2023-02-18T18:40:53.827Z,102066.88
2023-02-18T18:43:27.144Z,102062.41
2023-02-18T18:45:54.723Z,102056.28
2023-02-18T18:48:22.786Z,102066.56
2023-02-18T18:50:51.209Z,102067.47
2023-02-18T18:53:30.041Z,102079.34
2023-02-18T18:55:59.411Z,102082.06
2023-02-18T18:58:27.135Z,102076.78
2023-02-18T19:00:59.883Z,102079.06
2023-02-18T19:03:27.539Z,102081.91
2023-02-18T19:05:54.605Z,102086.78
2023-02-18T19:08:22.071Z,102098.69
2023-02-18T19:10:55.881Z,102099.69
2023-02-18T19:13:23.931Z,102095.97
2023-02-18T19:15:53.517Z,102098.84
2023-02-18T19:18:21.802Z,102095.22
2023-02-18T19:20:48.864Z,102105.41
2023-02-18T19:23:15.583Z,102109.13
2023-02-18T19:25:42.667Z,102110.84
2023-02-18T19:28:13.929Z,102122.44
2023-02-18T19:30:42.478Z,102122.59
2023-02-18T19:33:12.691Z,102141.50
2023-02-18T19:35:42.159Z,102129.78
2023-02-18T19:38:10.571Z,102119.31
2023-02-18T19:40:38.094Z,102119.44
2023-02-18T19:43:05.702Z,102116.41
2023-02-18T19:45:33.387Z,102130.25
2023-02-18T19:48:00.835Z,102132.41
2023-02-18T19:50:32.494Z,102138.16
2023-02-18T19:53:00.108Z,102149.19
2023-02-18T19:55:27.142Z,102162.03
2023-02-18T19:57:54.041Z,102153.88
2023-02-18T20:00:25.237Z,102177.38
2023-02-18T20:02:51.984Z,102156.31
2023-02-18T20:05:19.469Z,102154.63
2023-02-18T20:07:46.930Z,102153.75
2023-02-18T20:10:20.170Z,102183.66
2023-02-18T20:12:52.263Z,102165.50
2023-02-18T20:15:19.524Z,102186.25
2023-02-18T20:17:46.135Z,102191.84
2023-02-18T20:20:13.106Z,102191.84
2023-02-18T20:22:39.905Z,102185.53
2023-02-18T20:25:06.922Z,102191.13
2023-02-18T20:27:34.985Z,102208.31
2023-02-18T20:30:01.786Z,102202.84
2023-02-18T20:32:28.580Z,102201.00
2023-02-18T20:34:57.175Z,102213.88
2023-02-18T20:37:23.959Z,102218.47
2023-02-18T20:39:52.889Z,102195.13
2023-02-18T20:42:19.874Z,102210.41
2023-02-18T20:44:46.935Z,102214.16
2023-02-18T20:47:13.738Z,102220.59
2023-02-18T20:49:41.113Z,102218.72
2023-02-18T20:52:10.835Z,102233.34
2023-02-18T20:54:38.319Z,102227.91
2023-02-18T20:57:05.397Z,102218.16
2023-02-18T20:59:33.465Z,102225.72
2023-02-18T21:02:01.618Z,102229.69
2023-02-18T21:04:29.485Z,102227.25
2023-02-18T21:06:56.293Z,102234.72
2023-02-18T21:09:23.050Z,102233.69
2023-02-18T21:11:50.128Z,102237.28
2023-02-18T21:14:17.153Z,102253.47
2023-02-18T21:16:43.951Z,102263.34
2023-02-18T21:19:15.660Z,102266.81
2023-02-18T21:21:43.828Z,102270.38
2023-02-18T21:24:11.515Z,102253.06
2023-02-18T21:26:39.091Z,102266.81
2023-02-18T21:29:08.071Z,102282.38
2023-02-18T21:31:40.916Z,102292.13
2023-02-18T21:34:11.252Z,102309.34
2023-02-18T21:36:38.474Z,102313.75
2023-02-18T21:39:09.336Z,102303.91
2023-02-18T21:41:39.810Z,102323.19
2023-02-18T21:44:07.223Z,102324.19
2023-02-18T21:46:37.104Z,102326.44
2023-02-18T21:49:12.359Z,102344.78
2023-02-18T21:52:05.384Z,102348.47
2023-02-18T21:54:34.159Z,102351.19
2023-02-18T21:57:04.000Z,102365.53
2023-02-18T21:59:32.378Z,102360.81
2023-02-18T22:02:00.466Z,102369.00
2023-02-18T22:04:28.757Z,102374.44
2023-02-18T22:06:55.992Z,102383.31
2023-02-18T22:09:22.968Z,102385.16
2023-02-18T22:11:49.926Z,102386.03
2023-02-18T22:14:17.427Z,102387.91
2023-02-18T22:16:44.488Z,102387.03
2023-02-18T22:19:12.496Z,102392.34
2023-02-18T22:21:40.346Z,102398.78
2023-02-18T22:24:08.038Z,102405.94
2023-02-18T22:26:35.327Z,102410.50
2023-02-18T22:29:03.244Z,102415.81
2023-02-18T22:31:30.880Z,102423.97
2023-02-18T22:33:59.029Z,102426.81
2023-02-18T22:36:27.279Z,102427.72
2023-02-18T22:38:54.576Z,102434.00
2023-02-18T22:41:23.687Z,102432.41
2023-02-18T22:43:58.281Z,102430.94
2023-02-18T22:46:25.766Z,102430.22
2023-02-18T22:48:55.252Z,102436.16
2023-02-18T22:51:28.598Z,102451.41
2023-02-18T22:53:57.592Z,102447.22
2023-02-18T22:56:26.482Z,102439.19
2023-02-18T22:58:55.411Z,102463.78
2023-02-18T23:01:31.403Z,102464.50
2023-02-18T23:04:03.206Z,102474.41
2023-02-18T23:06:30.057Z,102478.84
2023-02-18T23:08:56.880Z,102486.13
2023-02-18T23:11:23.890Z,102496.16
2023-02-18T23:14:08.955Z,102490.22
2023-02-18T23:16:56.966Z,102489.63
2023-02-18T23:19:25.073Z,102490.63
2023-02-18T23:21:51.998Z,102504.06
2023-02-18T23:24:19.404Z,102514.94
2023-02-18T23:26:46.289Z,102517.66
2023-02-18T23:29:13.298Z,102522.00
2023-02-18T23:31:40.521Z,102521.88
2023-02-18T23:34:08.762Z,102531.63
2023-02-18T23:36:36.222Z,102543.22
2023-02-18T23:39:08.390Z,102544.38
2023-02-18T23:41:36.652Z,102538.81
2023-02-18T23:44:04.849Z,102543.38
2023-02-18T23:46:31.863Z,102548.94
2023-02-18T23:48:59.323Z,102550.16
2023-02-18T23:51:26.683Z,102556.97
2023-02-18T23:53:53.629Z,102565.78
2023-02-18T23:56:26.097Z,102561.69
2023-02-18T23:58:58.381Z,102572.78
